createdAt,value
2018-04-12T00:01:16.466Z,12.80
2018-04-12T00:03:44.627Z,12.60
2018-04-12T00:06:12.744Z,12.70
2018-04-12T00:08:40.878Z,12.70
2018-04-12T00:11:08.999Z,12.70
2018-04-12T00:13:37.277Z,12.60
2018-04-12T00:16:05.391Z,12.80
2018-04-12T00:18:33.533Z,13.00
2018-04-12T00:21:01.636Z,12.90
2018-04-12T00:23:29.787Z,13.00
2018-04-12T00:25:58.678Z,12.90
2018-04-12T00:28:27.573Z,12.90
2018-04-12T00:30:56.462Z,12.80
2018-04-12T00:33:25.366Z,12.80
2018-04-12T00:35:53.472Z,12.70
2018-04-12T00:38:21.614Z,12.80
2018-04-12T00:40:49.734Z,12.70
2018-04-12T00:43:17.870Z,12.80
2018-04-12T00:45:46.005Z,12.70
2018-04-12T00:48:14.142Z,12.70
2018-04-12T00:50:42.259Z,12.70
2018-04-12T00:53:10.462Z,12.40
2018-04-12T00:55:38.596Z,12.20
2018-04-12T00:58:06.749Z,12.20
2018-04-12T01:00:34.871Z,12.10
2018-04-12T01:03:03.047Z,12.20
2018-04-12T01:05:31.177Z,12.10
2018-04-12T01:07:59.323Z,11.80
2018-04-12T01:10:27.454Z,11.90
2018-04-12T01:12:56.356Z,11.90
2018-04-12T01:15:24.498Z,11.80
2018-04-12T01:17:52.647Z,11.70
2018-04-12T01:20:20.787Z,11.60
2018-04-12T01:22:48.929Z,11.70
2018-04-12T01:25:18.574Z,11.90
2018-04-12T01:27:46.735Z,11.80
2018-04-12T01:30:14.858Z,12.00
2018-04-12T01:32:43.067Z,12.00
2018-04-12T01:35:11.963Z,11.90
2018-04-12T01:37:40.862Z,11.90
2018-04-12T01:40:08.998Z,11.80
2018-04-12T01:42:37.109Z,11.80
2018-04-12T01:45:05.264Z,11.80
2018-04-12T01:47:34.140Z,11.70
2018-04-12T01:50:02.273Z,11.70
2018-04-12T01:52:30.388Z,11.80
2018-04-12T01:54:58.563Z,11.70
2018-04-12T01:57:26.678Z,11.50
2018-04-12T01:59:54.833Z,11.50
2018-04-12T02:02:23.718Z,11.50
2018-04-12T02:04:52.651Z,11.30
2018-04-12T02:07:20.763Z,11.30
2018-04-12T02:09:48.909Z,11.30
2018-04-12T02:12:17.150Z,11.30
2018-04-12T02:14:45.369Z,11.30
2018-04-12T02:17:13.482Z,11.40
2018-04-12T02:19:42.391Z,11.50
2018-04-12T02:22:10.517Z,11.40
2018-04-12T02:24:40.188Z,11.60
2018-04-12T02:27:08.306Z,11.60
2018-04-12T02:29:36.449Z,11.60
2018-04-12T02:32:04.572Z,11.50
2018-04-12T02:34:33.481Z,11.50
2018-04-12T02:37:01.620Z,11.40
2018-04-12T02:39:29.761Z,11.50
2018-04-12T02:41:57.876Z,11.60
2018-04-12T02:44:26.785Z,11.50
2018-04-12T02:46:55.671Z,11.40
2018-04-12T02:49:24.580Z,11.30
2018-04-12T02:51:52.734Z,11.30
2018-04-12T02:54:21.642Z,11.20
2018-04-12T02:56:49.753Z,11.20
2018-04-12T02:59:17.900Z,11.30
2018-04-12T03:01:46.026Z,11.30
2018-04-12T03:04:14.164Z,11.20
2018-04-12T03:06:42.274Z,11.30
2018-04-12T03:09:10.417Z,11.30
2018-04-12T03:11:38.540Z,11.20
2018-04-12T03:14:07.446Z,10.90
2018-04-12T03:16:35.567Z,10.90
2018-04-12T03:19:03.708Z,11.00
2018-04-12T03:21:31.820Z,11.10
2018-04-12T03:23:59.974Z,11.10
2018-04-12T03:26:28.087Z,11.10
2018-04-12T03:28:57.001Z,11.10
2018-04-12T03:31:25.116Z,11.10
2018-04-12T03:33:53.270Z,11.10
2018-04-12T03:36:21.399Z,11.00
2018-04-12T03:38:50.302Z,11.00
2018-04-12T03:41:18.434Z,11.00
2018-04-12T03:43:46.579Z,11.00
2018-04-12T03:46:14.694Z,11.00
2018-04-12T03:48:42.906Z,10.90
2018-04-12T03:51:10.978Z,10.90
2018-04-12T03:53:39.127Z,11.00
2018-04-12T03:56:08.012Z,11.10
2018-04-12T03:58:36.150Z,11.10
2018-04-12T04:01:04.290Z,11.10
2018-04-12T04:03:32.441Z,11.20
2018-04-12T04:06:01.327Z,11.10
2018-04-12T04:08:30.250Z,11.20
2018-04-12T04:10:58.391Z,11.10
2018-04-12T04:13:26.547Z,11.10
2018-04-12T04:16:06.570Z,11.10
2018-04-12T04:18:46.605Z,11.10
2018-04-12T04:21:14.721Z,11.10
2018-04-12T04:23:42.861Z,11.00
2018-04-12T04:26:10.977Z,10.90
2018-04-12T04:28:39.102Z,11.10
2018-04-12T04:31:08.097Z,11.10
2018-04-12T04:33:36.212Z,11.20
2018-04-12T04:36:04.392Z,11.10
2018-04-12T04:38:32.511Z,11.20
2018-04-12T04:41:00.654Z,11.20
2018-04-12T04:43:28.769Z,11.10
2018-04-12T04:45:56.909Z,11.10
2018-04-12T04:48:25.788Z,11.00
2018-04-12T04:50:53.947Z,11.00
2018-04-12T04:53:22.057Z,10.80
2018-04-12T04:55:50.962Z,10.90
2018-04-12T04:58:19.082Z,10.70
2018-04-12T05:00:47.210Z,10.80
2018-04-12T05:03:15.338Z,10.80
2018-04-12T05:05:43.480Z,10.80
2018-04-12T05:08:11.611Z,11.00
2018-04-12T05:10:40.206Z,11.30
2018-04-12T05:13:08.326Z,11.20
2018-04-12T05:15:36.556Z,11.20
2018-04-12T05:18:04.620Z,11.20
2018-04-12T05:20:32.769Z,11.10
2018-04-12T05:23:01.423Z,11.40
2018-04-12T05:25:30.035Z,11.30
2018-04-12T05:27:58.183Z,11.30
2018-04-12T05:30:26.337Z,11.30
2018-04-12T05:32:54.456Z,11.50
2018-04-12T05:35:22.596Z,11.70
2018-04-12T05:37:50.709Z,11.50
2018-04-12T05:40:18.893Z,11.30
2018-04-12T05:42:46.999Z,11.30
2018-04-12T05:45:15.127Z,11.30
2018-04-12T05:47:43.773Z,11.30
2018-04-12T05:50:11.931Z,11.40
2018-04-12T05:52:40.055Z,11.50
2018-04-12T05:55:08.990Z,11.50
2018-04-12T05:57:37.108Z,11.50
2018-04-12T06:00:05.242Z,11.70
2018-04-12T06:02:36.038Z,11.40
2018-04-12T06:05:04.202Z,11.40
2018-04-12T06:07:32.315Z,11.30
2018-04-12T06:10:00.577Z,11.50
2018-04-12T06:12:28.728Z,11.70
2018-04-12T06:14:56.893Z,11.60
2018-04-12T06:17:25.015Z,11.50
2018-04-12T06:19:53.154Z,11.60
2018-04-12T06:22:21.275Z,11.50
2018-04-12T06:24:49.432Z,11.40
2018-04-12T06:27:17.563Z,11.50
2018-04-12T06:29:45.695Z,11.40
2018-04-12T06:32:13.824Z,11.20
2018-04-12T06:34:42.474Z,11.10
2018-04-12T06:37:10.595Z,11.30
2018-04-12T06:39:39.506Z,11.40
2018-04-12T06:42:07.623Z,11.40
2018-04-12T06:44:35.766Z,11.50
2018-04-12T06:47:03.889Z,11.50
2018-04-12T06:49:32.030Z,11.40
2018-04-12T06:52:00.970Z,11.40
2018-04-12T06:54:29.890Z,11.50
2018-04-12T06:56:58.026Z,11.50
2018-04-12T06:59:26.909Z,11.50
2018-04-12T07:01:55.436Z,11.40
2018-04-12T07:04:24.538Z,11.50
2018-04-12T07:06:52.806Z,11.50
2018-04-12T07:09:20.962Z,11.70
2018-04-12T07:11:49.878Z,11.80
2018-04-12T07:14:18.001Z,11.80
2018-04-12T07:16:46.124Z,11.60
2018-04-12T07:19:14.291Z,11.70
2018-04-12T07:21:42.409Z,11.80
2018-04-12T07:24:10.548Z,11.90
2018-04-12T07:26:38.677Z,12.00
2018-04-12T07:29:07.638Z,11.90
2018-04-12T07:31:35.764Z,11.90
2018-04-12T07:34:04.632Z,12.00
2018-04-12T07:36:32.766Z,12.00
2018-04-12T07:39:00.878Z,12.10
2018-04-12T07:41:29.786Z,12.30
2018-04-12T07:43:58.667Z,12.50
2018-04-12T07:46:27.590Z,12.60
2018-04-12T07:48:55.711Z,12.50
2018-04-12T07:51:23.849Z,12.80
2018-04-12T07:53:51.990Z,12.60
2018-04-12T07:58:49.514Z,12.80
2018-04-12T08:01:17.772Z,12.70
2018-04-12T08:03:45.904Z,12.50
2018-04-12T08:06:14.811Z,12.80
2018-04-12T08:08:42.929Z,12.80
2018-04-12T08:11:11.064Z,13.10
2018-04-12T08:13:39.172Z,13.30
2018-04-12T08:16:07.373Z,13.50
2018-04-12T08:18:35.490Z,13.70
2018-04-12T08:21:03.640Z,13.80
2018-04-12T08:23:33.713Z,14.60
2018-04-12T08:26:02.758Z,15.00
2018-04-12T08:28:31.640Z,15.60
2018-04-12T08:31:00.546Z,16.50
2018-04-12T08:33:29.419Z,17.90
2018-04-12T08:35:58.438Z,19.30
2018-04-12T08:38:26.552Z,19.30
2018-04-12T08:40:54.687Z,19.70
2018-04-12T08:43:22.799Z,20.10
2018-04-12T08:45:50.966Z,21.20
2018-04-12T08:48:19.088Z,20.60
2018-04-12T08:50:47.998Z,19.90
2018-04-12T08:53:16.228Z,19.90
2018-04-12T08:55:44.358Z,20.00
2018-04-12T08:58:12.468Z,19.30
2018-04-12T09:00:40.634Z,19.00
2018-04-12T09:03:09.250Z,18.60
2018-04-12T09:05:38.151Z,17.00
2018-04-12T09:08:07.046Z,16.80
2018-04-12T09:10:35.945Z,16.00
2018-04-12T09:13:04.052Z,16.00
2018-04-12T09:15:32.193Z,15.90
2018-04-12T09:18:00.350Z,15.40
2018-04-12T09:20:28.483Z,14.90
2018-04-12T09:22:56.610Z,14.80
2018-04-12T09:27:54.889Z,13.90
2018-04-12T09:30:23.790Z,13.90
2018-04-12T09:35:23.867Z,13.70
2018-04-12T09:37:53.419Z,13.70
2018-04-12T09:40:21.557Z,13.60
2018-04-12T09:42:49.679Z,13.50
2018-04-12T09:45:18.552Z,13.80
2018-04-12T09:47:46.698Z,13.80
2018-04-12T09:50:14.812Z,13.70
2018-04-12T09:52:43.728Z,13.50
2018-04-12T09:55:11.846Z,13.50
2018-04-12T09:57:40.000Z,13.50
2018-04-12T10:00:08.127Z,13.50
2018-04-12T10:02:42.427Z,13.60
2018-04-12T10:05:10.532Z,13.60
2018-04-12T10:07:44.329Z,13.80
2018-04-12T10:10:13.222Z,13.90
2018-04-12T10:12:42.110Z,14.00
2018-04-12T10:15:10.994Z,14.10
2018-04-12T10:17:39.907Z,14.00
2018-04-12T10:20:08.067Z,14.00
2018-04-12T10:22:36.993Z,13.90
2018-04-12T10:25:05.119Z,13.90
2018-04-12T10:27:33.257Z,14.10
2018-04-12T10:30:01.384Z,14.20
2018-04-12T10:32:30.277Z,14.50
2018-04-12T10:34:58.398Z,14.50
2018-04-12T10:37:26.534Z,14.60
2018-04-12T10:39:54.649Z,14.60
2018-04-12T10:42:22.789Z,14.70
2018-04-12T10:44:50.900Z,14.80
2018-04-12T10:47:19.108Z,14.80
2018-04-12T10:49:47.997Z,15.20
2018-04-12T10:52:16.903Z,15.20
2018-04-12T10:54:45.013Z,15.20
2018-04-12T10:57:13.145Z,15.30
2018-04-12T10:59:41.267Z,15.40
2018-04-12T11:02:09.403Z,15.70
2018-04-12T11:04:37.533Z,15.80
2018-04-12T11:07:05.679Z,16.00
2018-04-12T11:09:33.792Z,16.40
2018-04-12T11:12:02.692Z,16.80
2018-04-12T11:14:31.565Z,17.10
2018-04-12T11:16:59.693Z,17.10
2018-04-12T11:19:27.804Z,17.20
2018-04-12T11:21:56.293Z,17.30
2018-04-12T11:24:25.002Z,17.20
2018-04-12T11:26:53.898Z,17.10
2018-04-12T11:29:22.049Z,17.00
2018-04-12T11:31:50.172Z,16.90
2018-04-12T11:34:18.321Z,16.80
2018-04-12T11:36:47.209Z,16.70
2018-04-12T11:39:15.331Z,16.70
2018-04-12T11:41:43.460Z,16.80
2018-04-12T11:44:11.571Z,16.70
2018-04-12T11:46:40.846Z,16.60
2018-04-12T11:49:08.962Z,16.60
2018-04-12T11:51:37.108Z,16.70
2018-04-12T11:54:05.221Z,16.80
2018-04-12T11:56:33.357Z,16.80
2018-04-12T11:59:01.487Z,16.80
2018-04-12T12:01:30.395Z,17.20
2018-04-12T12:03:58.508Z,17.10
2018-04-12T12:06:27.435Z,17.20
2018-04-12T12:08:55.554Z,17.20
2018-04-12T12:11:23.788Z,17.20
2018-04-12T12:16:22.855Z,17.10
2018-04-12T12:18:50.957Z,17.00
2018-04-12T12:21:19.146Z,17.10
2018-04-12T12:23:47.361Z,17.20
2018-04-12T12:26:16.223Z,17.40
2018-04-12T12:28:46.336Z,17.40
2018-04-12T12:31:14.469Z,17.40
2018-04-12T12:33:42.602Z,17.40
2018-04-12T12:36:10.767Z,17.40
2018-04-12T12:38:39.696Z,17.70
2018-04-12T12:41:09.783Z,17.60
2018-04-12T12:43:42.357Z,17.70
2018-04-12T12:46:13.467Z,17.70
2018-04-12T12:48:43.763Z,17.70
2018-04-12T12:51:11.882Z,17.80
2018-04-12T12:53:40.024Z,17.90
2018-04-12T12:56:08.210Z,17.80
2018-04-12T12:58:36.923Z,17.70
2018-04-12T13:01:05.042Z,17.60
2018-04-12T13:03:33.179Z,17.70
2018-04-12T13:06:09.000Z,17.70
2018-04-12T13:08:37.133Z,17.70
2018-04-12T13:11:05.255Z,17.80
2018-04-12T13:13:33.389Z,18.10
2018-04-12T13:16:01.499Z,18.20
2018-04-12T13:18:29.625Z,18.50
2018-04-12T13:20:57.731Z,18.60
2018-04-12T13:23:25.884Z,18.80
2018-04-12T13:25:54.000Z,19.00
2018-04-12T13:28:22.148Z,19.00
2018-04-12T13:30:50.306Z,19.10
2018-04-12T13:33:18.473Z,19.20
2018-04-12T13:35:46.578Z,19.30
2018-04-12T13:38:14.708Z,19.30
2018-04-12T13:40:44.520Z,19.30
2018-04-12T13:43:12.653Z,19.30
2018-04-12T13:45:40.774Z,19.50
2018-04-12T13:48:08.907Z,19.70
2018-04-12T13:50:37.021Z,19.80
2018-04-12T13:53:05.157Z,19.90
2018-04-12T13:55:33.287Z,19.90
2018-04-12T13:58:01.505Z,19.70
2018-04-12T14:00:30.407Z,19.50
2018-04-12T14:02:58.533Z,19.50
2018-04-12T14:05:26.655Z,19.60
2018-04-12T14:07:54.791Z,19.60
2018-04-12T14:10:22.914Z,19.60
2018-04-12T14:12:51.829Z,19.60
2018-04-12T14:15:19.939Z,19.60
2018-04-12T14:17:48.073Z,19.50
2018-04-12T14:20:16.182Z,19.50
2018-04-12T14:22:44.318Z,19.60
2018-04-12T14:25:12.429Z,19.60
2018-04-12T14:27:40.570Z,19.60
2018-04-12T14:30:08.693Z,19.70
2018-04-12T14:32:36.832Z,19.80
2018-04-12T14:35:04.943Z,19.80
2018-04-12T14:37:33.083Z,20.00
2018-04-12T14:40:01.221Z,19.90
2018-04-12T14:42:29.369Z,19.90
2018-04-12T14:44:57.487Z,20.10
2018-04-12T14:47:25.706Z,20.10
2018-04-12T14:49:53.795Z,20.10
2018-04-12T14:52:21.941Z,20.10
2018-04-12T14:54:50.081Z,20.20
2018-04-12T14:57:18.245Z,20.00
2018-04-12T14:59:46.358Z,19.90
2018-04-12T15:02:14.490Z,20.00
2018-04-12T15:04:42.801Z,20.10
2018-04-12T15:07:10.945Z,20.00
2018-04-12T15:09:39.070Z,20.00
2018-04-12T15:12:07.203Z,19.90
2018-04-12T15:14:36.569Z,19.90
2018-04-12T15:17:05.720Z,19.70
2018-04-12T15:19:33.824Z,19.70
2018-04-12T15:22:02.020Z,19.70
2018-04-12T15:24:31.448Z,19.60
2018-04-12T15:26:59.595Z,19.70
2018-04-12T15:29:29.818Z,19.70
2018-04-12T15:31:57.971Z,19.70
2018-04-12T15:34:26.114Z,19.70
2018-04-12T15:36:54.216Z,19.80
2018-04-12T15:39:22.350Z,19.70
2018-04-12T15:41:51.289Z,19.60
2018-04-12T15:44:19.445Z,19.60
2018-04-12T15:46:47.570Z,19.50
2018-04-12T15:49:15.807Z,19.50
2018-04-12T15:51:44.008Z,19.50
2018-04-12T15:54:12.906Z,19.50
2018-04-12T15:56:41.031Z,19.50
2018-04-12T15:59:09.158Z,19.40
2018-04-12T16:01:37.269Z,19.30
2018-04-12T16:04:05.449Z,19.30
2018-04-12T16:06:33.591Z,19.20
2018-04-12T16:09:01.773Z,19.20
2018-04-12T16:11:30.324Z,19.20
2018-04-12T16:13:59.722Z,19.10
2018-04-12T16:16:28.600Z,19.00
2018-04-12T16:18:56.734Z,19.00
2018-04-12T16:21:24.859Z,18.80
2018-04-12T16:23:53.878Z,18.70
2018-04-12T16:26:22.006Z,18.70
2018-04-12T16:28:50.147Z,18.60
2018-04-12T16:31:19.146Z,18.50
2018-04-12T16:33:47.380Z,18.40
2018-04-12T16:36:16.266Z,18.30
2018-04-12T16:38:45.168Z,18.30
2018-04-12T16:41:14.151Z,18.30
2018-04-12T16:43:43.056Z,18.20
2018-04-12T16:46:11.853Z,18.20
2018-04-12T16:48:39.997Z,18.20
2018-04-12T16:51:08.114Z,18.20
2018-04-12T16:53:36.257Z,18.20
2018-04-12T16:56:05.134Z,18.30
2018-04-12T16:58:33.262Z,18.30
2018-04-12T17:01:01.411Z,18.20
2018-04-12T17:03:29.529Z,18.30
2018-04-12T17:05:57.656Z,18.30
2018-04-12T17:08:25.790Z,18.20
2018-04-12T17:10:53.931Z,18.30
2018-04-12T17:13:22.045Z,18.30
2018-04-12T17:15:50.187Z,18.40
2018-04-12T17:18:18.293Z,18.30
2018-04-12T17:20:46.434Z,18.20
2018-04-12T17:23:14.549Z,18.00
2018-04-12T17:25:43.453Z,17.80
2018-04-12T17:28:12.333Z,17.70
2018-04-12T17:30:41.239Z,17.70
2018-04-12T17:33:09.378Z,17.70
2018-04-12T17:35:37.512Z,17.70
2018-04-12T17:38:05.706Z,17.70
2018-04-12T17:40:33.846Z,17.50
2018-04-12T17:43:01.957Z,17.40
2018-04-12T17:45:30.472Z,17.40
2018-04-12T17:47:59.351Z,17.20
2018-04-12T17:50:27.503Z,17.20
2018-04-12T17:52:55.612Z,17.20
2018-04-12T17:55:24.514Z,17.10
2018-04-12T17:57:53.412Z,17.10
2018-04-12T18:00:21.547Z,17.00
2018-04-12T18:02:49.717Z,17.10
2018-04-12T18:05:17.848Z,17.00
2018-04-12T18:07:45.960Z,16.80
2018-04-12T18:10:14.121Z,16.80
2018-04-12T18:12:42.243Z,16.80
2018-04-12T18:15:11.151Z,16.70
2018-04-12T18:17:39.265Z,16.60
2018-04-12T18:20:07.402Z,16.70
2018-04-12T18:22:35.523Z,16.70
2018-04-12T18:25:04.339Z,16.60
2018-04-12T18:27:33.520Z,16.50
2018-04-12T18:30:01.654Z,16.50
2018-04-12T18:32:30.984Z,16.50
2018-04-12T18:35:00.018Z,16.10
2018-04-12T18:37:28.982Z,16.10
2018-04-12T18:39:57.138Z,16.10
2018-04-12T18:42:25.245Z,16.00
2018-04-12T18:44:54.155Z,15.90
2018-04-12T18:47:22.295Z,15.90
2018-04-12T18:49:50.437Z,16.00
2018-04-12T18:52:18.552Z,15.90
2018-04-12T18:54:47.436Z,16.10
2018-04-12T18:57:15.573Z,16.10
2018-04-12T18:59:43.693Z,16.10
2018-04-12T19:02:12.594Z,15.90
2018-04-12T19:04:41.482Z,15.90
2018-04-12T19:07:10.396Z,15.90
2018-04-12T19:09:38.505Z,15.90
2018-04-12T19:12:06.649Z,15.90
2018-04-12T19:14:34.767Z,15.90
2018-04-12T19:17:02.920Z,15.90
2018-04-12T19:19:31.024Z,15.80
2018-04-12T19:21:59.175Z,15.90
2018-04-12T19:24:27.275Z,15.80
2018-04-12T19:26:56.363Z,15.80
2018-04-12T19:29:24.473Z,15.80
2018-04-12T19:31:52.622Z,15.70
2018-04-12T19:34:21.501Z,15.80
2018-04-12T19:36:49.640Z,15.80
2018-04-12T19:39:17.770Z,15.50
2018-04-12T19:41:46.661Z,15.30
2018-04-12T19:44:15.586Z,15.20
2018-04-12T19:46:43.730Z,15.10
2018-04-12T19:49:11.851Z,15.20
2018-04-12T19:51:39.981Z,15.40
2018-04-12T19:54:08.095Z,15.30
2018-04-12T19:56:36.247Z,15.30
2018-04-12T19:59:04.347Z,15.10
2018-04-12T20:01:32.501Z,15.00
2018-04-12T20:04:00.626Z,15.30
2018-04-12T20:06:29.542Z,15.20
2018-04-12T20:08:57.776Z,15.10
2018-04-12T20:11:25.913Z,15.10
2018-04-12T20:13:54.065Z,15.20
2018-04-12T20:16:22.212Z,15.40
2018-04-12T20:18:51.098Z,15.30
2018-04-12T20:21:19.235Z,15.30
2018-04-12T20:23:47.355Z,15.40
2018-04-12T20:26:16.265Z,15.20
2018-04-12T20:28:44.383Z,15.20
2018-04-12T20:31:12.518Z,15.20
2018-04-12T20:33:40.629Z,15.20
2018-04-12T20:36:08.770Z,15.20
2018-04-12T20:38:36.890Z,15.10
2018-04-12T20:41:05.029Z,15.20
2018-04-12T20:43:33.151Z,15.20
2018-04-12T20:46:02.060Z,15.20
2018-04-12T20:48:30.947Z,15.00
2018-04-12T20:50:59.848Z,15.00
2018-04-12T20:53:27.958Z,15.00
2018-04-12T20:55:56.092Z,15.00
2018-04-12T20:58:24.201Z,14.90
2018-04-12T21:00:52.805Z,15.00
2018-04-12T21:03:20.921Z,15.00
2018-04-12T21:05:49.811Z,15.20
2018-04-12T21:08:18.050Z,15.10
2018-04-12T21:10:46.869Z,15.00
2018-04-12T21:13:15.769Z,14.70
2018-04-12T21:15:44.655Z,14.60
2018-04-12T21:18:13.538Z,14.70
2018-04-12T21:20:42.451Z,14.70
2018-04-12T21:23:10.570Z,14.70
2018-04-12T21:25:38.710Z,14.60
2018-04-12T21:28:06.854Z,14.70
2018-04-12T21:30:35.739Z,14.70
2018-04-12T21:33:04.651Z,14.80
2018-04-12T21:35:32.767Z,14.70
2018-04-12T21:38:00.913Z,14.60
2018-04-12T21:40:29.036Z,14.80
2018-04-12T21:42:57.161Z,14.90
2018-04-12T21:45:25.287Z,14.80
2018-04-12T21:47:53.438Z,14.70
2018-04-12T21:50:21.558Z,14.70
2018-04-12T21:52:49.712Z,14.90
2018-04-12T21:55:18.590Z,14.90
2018-04-12T21:57:46.739Z,14.90
2018-04-12T22:00:14.862Z,14.80
2018-04-12T22:02:42.994Z,14.90
2018-04-12T22:05:11.110Z,15.00
2018-04-12T22:07:40.000Z,14.90
2018-04-12T22:10:08.888Z,15.00
2018-04-12T22:12:37.788Z,15.20
2018-04-12T22:15:06.680Z,15.20
2018-04-12T22:17:34.832Z,15.20
2018-04-12T22:20:02.945Z,14.90
2018-04-12T22:22:31.122Z,14.90
2018-04-12T22:24:59.317Z,14.90
2018-04-12T22:27:27.502Z,14.90
2018-04-12T22:29:55.610Z,14.80
2018-04-12T22:32:24.533Z,14.70
2018-04-12T22:34:52.640Z,14.70
2018-04-12T22:37:21.563Z,14.70
2018-04-12T22:39:49.682Z,14.70
2018-04-12T22:42:17.815Z,14.70
2018-04-12T22:44:46.693Z,14.60
2018-04-12T22:47:14.836Z,14.60
2018-04-12T22:49:42.951Z,14.60
2018-04-12T22:52:11.857Z,14.70
2018-04-12T22:54:40.742Z,14.90
2018-04-12T22:57:09.659Z,15.10
2018-04-12T22:59:37.770Z,15.10
2018-04-12T23:02:06.679Z,15.50
2018-04-12T23:04:34.791Z,15.50
2018-04-12T23:07:02.933Z,15.60
2018-04-12T23:09:31.050Z,15.70
2018-04-12T23:11:59.258Z,15.80
2018-04-12T23:14:27.374Z,16.00
2018-04-12T23:16:55.519Z,16.10
2018-04-12T23:19:23.616Z,16.30
2018-04-12T23:21:51.752Z,16.40
2018-04-12T23:24:19.874Z,16.50
2018-04-12T23:26:48.008Z,16.50
2018-04-12T23:29:16.113Z,16.60
2018-04-12T23:31:44.246Z,16.70
2018-04-12T23:34:12.344Z,16.60
2018-04-12T23:36:40.494Z,16.60
2018-04-12T23:39:08.607Z,16.40
2018-04-12T23:41:36.737Z,16.20
2018-04-12T23:44:04.846Z,16.00
2018-04-12T23:46:33.728Z,15.80
2018-04-12T23:49:02.617Z,15.60
2018-04-12T23:51:31.526Z,15.60
2018-04-12T23:53:59.624Z,15.60
2018-04-12T23:56:27.787Z,15.40
2018-04-12T23:58:55.902Z,15.10
